首页
METAR-TAF:

METAR-TAF

机场 :

贝尔高姆, 印度

纬度: 15-51-33N, 经度: 74-37-03E, 海拔: 758米

当前天气观测

该预报发布于33分钟前的12:00 UTC
风速10节,风向西
温度 28°C
湿度 74%
气压 1011 hPa
能見度: 6000
散云层高于1200英尺
散云层高于1800英尺

METAR: VOBM 171200Z 27010KT 6000 SCT012 SCT018 28/23 Q1011

时间: 18:03 (12:33 UTC)

预报

该预报发布于4小时和33分钟前的08:00 UTC
预报有效从17日的 09点(UTC)到 17日的 18点(UTC)
风速10节,风向西南
能見度: 6000
散云层高于1200英尺
散云层高于8000英尺
短暂存在
从 17日的 12点(UTC)到 17日的 15点(UTC)
能見度: 5000
散云层高于1200英尺
散云层高于2000英尺
多云层高于8000英尺
雨, 毛毛雨,

TAF: VOBM 170800Z 1709/1718 23010KT 6000 SCT012 SCT080 TEMPO 1712/1715 5000 RA DZ SCT012 SCT020 BKN080

超过4000个机场的气象观测和天气预报(METAR&TAF报告)。

可查询的气象台以黄色和红色小点在地图上表示。

将鼠标移到小点上方,可查看气象台名称。

然后点击查看天气观测和预报。

如需切换地图:点击带黑十字的绿色按钮放大地图;点击带横线的绿色按钮缩小地图;或者点击绿色箭头查看邻近地区的地图。


METAR-TAF: